sensor_id;sensor_type;location;lat;lon;timestamp;temperature;humidity
70813;DHT22;62099;52.170;5.386;2022-08-25T00:01:45;24.50;65.90
70813;DHT22;62099;52.170;5.386;2022-08-25T00:04:14;24.50;66.10
70813;DHT22;62099;52.170;5.386;2022-08-25T00:06:42;24.40;66.30
70813;DHT22;62099;52.170;5.386;2022-08-25T00:09:10;24.40;66.20
70813;DHT22;62099;52.170;5.386;2022-08-25T00:11:39;24.40;66.40
70813;DHT22;62099;52.170;5.386;2022-08-25T00:14:10;24.40;66.50
70813;DHT22;62099;52.170;5.386;2022-08-25T00:16:38;24.40;66.50
70813;DHT22;62099;52.170;5.386;2022-08-25T00:19:10;24.40;66.60
70813;DHT22;62099;52.170;5.386;2022-08-25T00:21:37;24.30;66.60
70813;DHT22;62099;52.170;5.386;2022-08-25T00:24:08;24.30;66.80
70813;DHT22;62099;52.170;5.386;2022-08-25T00:26:38;24.20;66.90
70813;DHT22;62099;52.170;5.386;2022-08-25T00:29:06;24.10;66.90
70813;DHT22;62099;52.170;5.386;2022-08-25T00:31:33;24.10;67.10
70813;DHT22;62099;52.170;5.386;2022-08-25T00:34:09;24.10;67.30
70813;DHT22;62099;52.170;5.386;2022-08-25T00:36:37;24.00;67.30
70813;DHT22;62099;52.170;5.386;2022-08-25T00:39:07;24.00;67.40
70813;DHT22;62099;52.170;5.386;2022-08-25T00:41:35;23.90;67.40
70813;DHT22;62099;52.170;5.386;2022-08-25T00:44:05;23.80;67.50
70813;DHT22;62099;52.170;5.386;2022-08-25T00:46:37;23.80;67.50
70813;DHT22;62099;52.170;5.386;2022-08-25T00:49:09;23.80;67.70
70813;DHT22;62099;52.170;5.386;2022-08-25T00:51:54;23.70;67.70
70813;DHT22;62099;52.170;5.386;2022-08-25T00:54:28;23.70;67.80
70813;DHT22;62099;52.170;5.386;2022-08-25T00:56:57;23.60;68.40
70813;DHT22;62099;52.170;5.386;2022-08-25T00:59:25;23.60;67.90
70813;DHT22;62099;52.170;5.386;2022-08-25T01:01:53;23.60;68.00
70813;DHT22;62099;52.170;5.386;2022-08-25T01:04:20;23.50;68.10
70813;DHT22;62099;52.170;5.386;2022-08-25T01:06:48;23.50;68.10
70813;DHT22;62099;52.170;5.386;2022-08-25T01:09:16;23.40;68.10
70813;DHT22;62099;52.170;5.386;2022-08-25T01:11:44;23.40;68.10
70813;DHT22;62099;52.170;5.386;2022-08-25T01:14:15;23.40;68.20
70813;DHT22;62099;52.170;5.386;2022-08-25T01:16:42;23.40;68.30
70813;DHT22;62099;52.170;5.386;2022-08-25T01:19:12;23.30;68.30
70813;DHT22;62099;52.170;5.386;2022-08-25T01:21:49;23.30;68.40
70813;DHT22;62099;52.170;5.386;2022-08-25T01:24:36;23.20;68.40
70813;DHT22;62099;52.170;5.386;2022-08-25T01:27:05;23.20;68.30
70813;DHT22;62099;52.170;5.386;2022-08-25T01:29:33;23.10;68.50
70813;DHT22;62099;52.170;5.386;2022-08-25T01:32:05;23.10;68.60
70813;DHT22;62099;52.170;5.386;2022-08-25T01:34:34;23.10;68.70
70813;DHT22;62099;52.170;5.386;2022-08-25T01:37:03;23.00;68.80
70813;DHT22;62099;52.170;5.386;2022-08-25T01:39:31;23.00;68.70
70813;DHT22;62099;52.170;5.386;2022-08-25T01:44:31;23.00;68.60
70813;DHT22;62099;52.170;5.386;2022-08-25T01:46:58;22.90;68.40
70813;DHT22;62099;52.170;5.386;2022-08-25T01:49:25;22.90;68.30
70813;DHT22;62099;52.170;5.386;2022-08-25T01:52:01;22.90;68.10
70813;DHT22;62099;52.170;5.386;2022-08-25T01:54:31;22.90;67.90
70813;DHT22;62099;52.170;5.386;2022-08-25T01:56:58;22.90;67.70
70813;DHT22;62099;52.170;5.386;2022-08-25T01:59:25;22.90;67.50
70813;DHT22;62099;52.170;5.386;2022-08-25T02:01:52;22.80;67.30
70813;DHT22;62099;52.170;5.386;2022-08-25T02:04:28;22.80;67.00
70813;DHT22;62099;52.170;5.386;2022-08-25T02:06:59;22.80;66.80
70813;DHT22;62099;52.170;5.386;2022-08-25T02:09:26;22.80;66.80
70813;DHT22;62099;52.170;5.386;2022-08-25T02:11:53;22.80;66.60
70813;DHT22;62099;52.170;5.386;2022-08-25T02:14:20;22.80;66.30
70813;DHT22;62099;52.170;5.386;2022-08-25T02:16:48;22.80;66.30
70813;DHT22;62099;52.170;5.386;2022-08-25T02:19:17;22.70;66.10
70813;DHT22;62099;52.170;5.386;2022-08-25T02:21:44;22.70;66.00
70813;DHT22;62099;52.170;5.386;2022-08-25T02:24:12;22.70;66.00
70813;DHT22;62099;52.170;5.386;2022-08-25T02:26:39;22.70;65.80
70813;DHT22;62099;52.170;5.386;2022-08-25T02:29:07;22.70;65.80
70813;DHT22;62099;52.170;5.386;2022-08-25T02:31:34;22.60;65.60
70813;DHT22;62099;52.170;5.386;2022-08-25T02:34:02;22.60;65.60
70813;DHT22;62099;52.170;5.386;2022-08-25T02:36:29;22.60;65.60
70813;DHT22;62099;52.170;5.386;2022-08-25T02:38:57;22.60;65.70
70813;DHT22;62099;52.170;5.386;2022-08-25T02:41:25;22.60;65.50
70813;DHT22;62099;52.170;5.386;2022-08-25T02:43:57;22.60;65.20
70813;DHT22;62099;52.170;5.386;2022-08-25T02:46:24;22.60;65.00
70813;DHT22;62099;52.170;5.386;2022-08-25T02:48:51;22.60;65.00
70813;DHT22;62099;52.170;5.386;2022-08-25T02:51:21;22.60;64.90
70813;DHT22;62099;52.170;5.386;2022-08-25T02:53:48;22.60;64.70
70813;DHT22;62099;52.170;5.386;2022-08-25T02:56:17;22.70;64.70
70813;DHT22;62099;52.170;5.386;2022-08-25T02:58:45;22.70;64.40
70813;DHT22;62099;52.170;5.386;2022-08-25T03:01:13;22.80;64.40
70813;DHT22;62099;52.170;5.386;2022-08-25T03:03:42;22.80;64.20
70813;DHT22;62099;52.170;5.386;2022-08-25T03:06:11;22.80;64.00
70813;DHT22;62099;52.170;5.386;2022-08-25T03:08:39;22.80;63.90
70813;DHT22;62099;52.170;5.386;2022-08-25T03:11:07;22.90;63.60
70813;DHT22;62099;52.170;5.386;2022-08-25T03:13:34;22.90;63.40
70813;DHT22;62099;52.170;5.386;2022-08-25T03:16:02;22.90;63.20
70813;DHT22;62099;52.170;5.386;2022-08-25T03:18:30;22.90;62.90
70813;DHT22;62099;52.170;5.386;2022-08-25T03:20:57;22.90;62.90
70813;DHT22;62099;52.170;5.386;2022-08-25T03:23:25;22.90;62.60
70813;DHT22;62099;52.170;5.386;2022-08-25T03:25:55;22.90;62.50
70813;DHT22;62099;52.170;5.386;2022-08-25T03:28:41;22.90;62.40
70813;DHT22;62099;52.170;5.386;2022-08-25T03:31:08;22.90;62.20
70813;DHT22;62099;52.170;5.386;2022-08-25T03:33:36;22.90;62.10
70813;DHT22;62099;52.170;5.386;2022-08-25T03:36:05;22.80;62.10
70813;DHT22;62099;52.170;5.386;2022-08-25T03:38:32;22.80;62.00
70813;DHT22;62099;52.170;5.386;2022-08-25T03:40:59;22.80;61.80
70813;DHT22;62099;52.170;5.386;2022-08-25T03:43:27;22.80;61.80
70813;DHT22;62099;52.170;5.386;2022-08-25T03:45:54;22.70;62.00
70813;DHT22;62099;52.170;5.386;2022-08-25T03:48:20;22.70;61.80
70813;DHT22;62099;52.170;5.386;2022-08-25T03:50:50;22.70;61.90
70813;DHT22;62099;52.170;5.386;2022-08-25T03:53:18;22.70;61.70
70813;DHT22;62099;52.170;5.386;2022-08-25T03:55:46;22.60;61.80
70813;DHT22;62099;52.170;5.386;2022-08-25T03:58:13;22.50;61.80
70813;DHT22;62099;52.170;5.386;2022-08-25T04:00:41;22.50;61.80
70813;DHT22;62099;52.170;5.386;2022-08-25T04:03:08;22.50;61.90
70813;DHT22;62099;52.170;5.386;2022-08-25T04:05:34;22.40;61.90
70813;DHT22;62099;52.170;5.386;2022-08-25T04:08:01;22.40;61.90
70813;DHT22;62099;52.170;5.386;2022-08-25T04:10:28;22.30;61.70
70813;DHT22;62099;52.170;5.386;2022-08-25T04:12:55;22.30;61.70
70813;DHT22;62099;52.170;5.386;2022-08-25T04:15:22;22.30;61.80
70813;DHT22;62099;52.170;5.386;2022-08-25T04:17:56;22.30;62.30
70813;DHT22;62099;52.170;5.386;2022-08-25T04:20:24;22.30;61.70
70813;DHT22;62099;52.170;5.386;2022-08-25T04:22:51;22.20;61.50
70813;DHT22;62099;52.170;5.386;2022-08-25T04:25:19;22.20;61.50
70813;DHT22;62099;52.170;5.386;2022-08-25T04:27:45;22.10;61.40
70813;DHT22;62099;52.170;5.386;2022-08-25T04:30:12;22.10;61.50
70813;DHT22;62099;52.170;5.386;2022-08-25T04:32:40;22.00;61.50
70813;DHT22;62099;52.170;5.386;2022-08-25T04:35:07;22.00;61.40
70813;DHT22;62099;52.170;5.386;2022-08-25T04:37:34;22.00;61.60
70813;DHT22;62099;52.170;5.386;2022-08-25T04:40:01;21.90;61.50
70813;DHT22;62099;52.170;5.386;2022-08-25T04:42:28;21.90;61.20
70813;DHT22;62099;52.170;5.386;2022-08-25T04:44:55;21.90;61.30
70813;DHT22;62099;52.170;5.386;2022-08-25T04:47:22;21.80;61.30
70813;DHT22;62099;52.170;5.386;2022-08-25T04:49:49;21.80;61.20
70813;DHT22;62099;52.170;5.386;2022-08-25T04:52:16;21.80;61.10
70813;DHT22;62099;52.170;5.386;2022-08-25T04:54:43;21.70;61.10
70813;DHT22;62099;52.170;5.386;2022-08-25T04:57:10;21.80;61.30
70813;DHT22;62099;52.170;5.386;2022-08-25T04:59:37;21.80;61.10
70813;DHT22;62099;52.170;5.386;2022-08-25T05:02:04;21.70;61.00
70813;DHT22;62099;52.170;5.386;2022-08-25T05:04:34;21.70;61.00
70813;DHT22;62099;52.170;5.386;2022-08-25T05:07:02;21.70;60.90
70813;DHT22;62099;52.170;5.386;2022-08-25T05:09:29;21.70;60.90
70813;DHT22;62099;52.170;5.386;2022-08-25T05:12:01;21.70;60.90
70813;DHT22;62099;52.170;5.386;2022-08-25T05:14:29;21.70;60.80
70813;DHT22;62099;52.170;5.386;2022-08-25T05:16:57;21.70;60.60
70813;DHT22;62099;52.170;5.386;2022-08-25T05:19:24;21.70;60.50
70813;DHT22;62099;52.170;5.386;2022-08-25T05:21:52;21.70;60.40
70813;DHT22;62099;52.170;5.386;2022-08-25T05:24:20;21.80;60.50
70813;DHT22;62099;52.170;5.386;2022-08-25T05:26:47;21.80;60.40
70813;DHT22;62099;52.170;5.386;2022-08-25T05:29:14;21.80;60.50
70813;DHT22;62099;52.170;5.386;2022-08-25T05:31:41;21.90;60.50
70813;DHT22;62099;52.170;5.386;2022-08-25T05:34:15;21.90;60.50
70813;DHT22;62099;52.170;5.386;2022-08-25T05:36:44;22.00;60.30
70813;DHT22;62099;52.170;5.386;2022-08-25T05:39:11;22.10;60.30
70813;DHT22;62099;52.170;5.386;2022-08-25T05:41:38;22.20;60.20
70813;DHT22;62099;52.170;5.386;2022-08-25T05:44:04;22.30;59.80
70813;DHT22;62099;52.170;5.386;2022-08-25T05:46:31;22.50;59.10
70813;DHT22;62099;52.170;5.386;2022-08-25T05:48:58;22.60;58.80
70813;DHT22;62099;52.170;5.386;2022-08-25T05:51:25;22.70;58.40
70813;DHT22;62099;52.170;5.386;2022-08-25T05:53:52;23.00;57.90
70813;DHT22;62099;52.170;5.386;2022-08-25T05:56:20;23.20;57.10
70813;DHT22;62099;52.170;5.386;2022-08-25T05:58:47;23.40;56.40
70813;DHT22;62099;52.170;5.386;2022-08-25T06:01:40;23.40;56.40
70813;DHT22;62099;52.170;5.386;2022-08-25T06:04:25;23.40;56.00
70813;DHT22;62099;52.170;5.386;2022-08-25T06:06:52;23.40;56.20
70813;DHT22;62099;52.170;5.386;2022-08-25T06:09:21;23.40;56.10
70813;DHT22;62099;52.170;5.386;2022-08-25T06:11:49;23.40;56.30
70813;DHT22;62099;52.170;5.386;2022-08-25T06:14:20;23.40;55.90
70813;DHT22;62099;52.170;5.386;2022-08-25T06:16:48;23.40;55.90
70813;DHT22;62099;52.170;5.386;2022-08-25T06:19:17;23.50;55.60
70813;DHT22;62099;52.170;5.386;2022-08-25T06:21:43;23.50;55.40
70813;DHT22;62099;52.170;5.386;2022-08-25T06:24:10;23.50;55.10
70813;DHT22;62099;52.170;5.386;2022-08-25T06:26:41;23.50;55.00
70813;DHT22;62099;52.170;5.386;2022-08-25T06:29:09;23.50;55.00
70813;DHT22;62099;52.170;5.386;2022-08-25T06:31:36;23.50;55.00
70813;DHT22;62099;52.170;5.386;2022-08-25T06:34:02;23.50;55.10
70813;DHT22;62099;52.170;5.386;2022-08-25T06:36:29;23.50;55.30
70813;DHT22;62099;52.170;5.386;2022-08-25T06:38:56;23.50;54.90
70813;DHT22;62099;52.170;5.386;2022-08-25T06:41:22;23.50;54.90
70813;DHT22;62099;52.170;5.386;2022-08-25T06:44:02;23.50;55.30
70813;DHT22;62099;52.170;5.386;2022-08-25T06:46:31;23.50;55.10
70813;DHT22;62099;52.170;5.386;2022-08-25T06:49:05;23.50;55.20
70813;DHT22;62099;52.170;5.386;2022-08-25T06:51:33;23.60;55.20
70813;DHT22;62099;52.170;5.386;2022-08-25T06:54:04;23.60;55.20
70813;DHT22;62099;52.170;5.386;2022-08-25T06:56:32;23.60;55.00
70813;DHT22;62099;52.170;5.386;2022-08-25T06:59:03;23.60;55.20
70813;DHT22;62099;52.170;5.386;2022-08-25T07:01:31;23.70;55.10
70813;DHT22;62099;52.170;5.386;2022-08-25T07:04:00;23.80;55.10
70813;DHT22;62099;52.170;5.386;2022-08-25T07:06:30;23.90;54.90
70813;DHT22;62099;52.170;5.386;2022-08-25T07:08:58;24.00;54.90
70813;DHT22;62099;52.170;5.386;2022-08-25T07:11:25;24.10;54.50
70813;DHT22;62099;52.170;5.386;2022-08-25T07:13:52;24.20;54.10
70813;DHT22;62099;52.170;5.386;2022-08-25T07:16:19;24.30;54.30
70813;DHT22;62099;52.170;5.386;2022-08-25T07:18:47;24.40;54.30
70813;DHT22;62099;52.170;5.386;2022-08-25T07:21:14;24.40;54.00
70813;DHT22;62099;52.170;5.386;2022-08-25T07:23:43;24.60;53.50
70813;DHT22;62099;52.170;5.386;2022-08-25T07:26:16;24.60;53.80
70813;DHT22;62099;52.170;5.386;2022-08-25T07:29:15;24.60;53.40
70813;DHT22;62099;52.170;5.386;2022-08-25T07:31:43;24.60;53.20
70813;DHT22;62099;52.170;5.386;2022-08-25T07:34:10;24.70;53.90
70813;DHT22;62099;52.170;5.386;2022-08-25T07:36:56;24.80;54.30
70813;DHT22;62099;52.170;5.386;2022-08-25T07:39:24;24.90;54.00
70813;DHT22;62099;52.170;5.386;2022-08-25T07:41:52;25.00;53.80
70813;DHT22;62099;52.170;5.386;2022-08-25T07:44:20;25.00;54.70
70813;DHT22;62099;52.170;5.386;2022-08-25T07:46:48;25.00;53.50
70813;DHT22;62099;52.170;5.386;2022-08-25T07:49:17;25.10;53.00
70813;DHT22;62099;52.170;5.386;2022-08-25T07:51:50;25.20;52.80
70813;DHT22;62099;52.170;5.386;2022-08-25T07:54:32;25.20;52.30
70813;DHT22;62099;52.170;5.386;2022-08-25T07:57:06;25.30;51.80
70813;DHT22;62099;52.170;5.386;2022-08-25T07:59:34;25.40;51.60
70813;DHT22;62099;52.170;5.386;2022-08-25T08:02:10;25.40;51.50
70813;DHT22;62099;52.170;5.386;2022-08-25T08:04:45;25.60;51.50
70813;DHT22;62099;52.170;5.386;2022-08-25T08:07:18;25.60;51.80
70813;DHT22;62099;52.170;5.386;2022-08-25T08:09:46;25.70;50.80
70813;DHT22;62099;52.170;5.386;2022-08-25T08:12:22;25.90;50.70
70813;DHT22;62099;52.170;5.386;2022-08-25T08:14:50;26.00;50.10
70813;DHT22;62099;52.170;5.386;2022-08-25T08:17:16;26.10;50.30
70813;DHT22;62099;52.170;5.386;2022-08-25T08:19:43;26.20;50.50
70813;DHT22;62099;52.170;5.386;2022-08-25T08:22:12;26.40;50.80
70813;DHT22;62099;52.170;5.386;2022-08-25T08:24:42;26.50;50.40
70813;DHT22;62099;52.170;5.386;2022-08-25T08:27:20;26.60;49.50
70813;DHT22;62099;52.170;5.386;2022-08-25T08:29:47;26.70;49.40
70813;DHT22;62099;52.170;5.386;2022-08-25T08:32:14;26.80;49.30
70813;DHT22;62099;52.170;5.386;2022-08-25T08:34:44;26.80;49.00
70813;DHT22;62099;52.170;5.386;2022-08-25T08:37:12;26.90;48.50
70813;DHT22;62099;52.170;5.386;2022-08-25T08:39:42;27.00;48.70
70813;DHT22;62099;52.170;5.386;2022-08-25T08:45:23;27.10;48.20
70813;DHT22;62099;52.170;5.386;2022-08-25T08:48:14;27.30;48.10
70813;DHT22;62099;52.170;5.386;2022-08-25T08:53:53;27.40;47.20
70813;DHT22;62099;52.170;5.386;2022-08-25T08:56:29;27.50;47.30
70813;DHT22;62099;52.170;5.386;2022-08-25T08:59:00;27.50;46.80
70813;DHT22;62099;52.170;5.386;2022-08-25T09:01:44;27.60;47.00
70813;DHT22;62099;52.170;5.386;2022-08-25T09:07:15;27.70;46.80
70813;DHT22;62099;52.170;5.386;2022-08-25T09:09:46;27.70;46.40
70813;DHT22;62099;52.170;5.386;2022-08-25T09:18:33;27.90;46.30
70813;DHT22;62099;52.170;5.386;2022-08-25T09:21:46;28.00;46.50
70813;DHT22;62099;52.170;5.386;2022-08-25T09:25:14;28.00;45.30
70813;DHT22;62099;52.170;5.386;2022-08-25T09:27:32;28.10;45.10
70813;DHT22;62099;52.170;5.386;2022-08-25T09:30:10;28.20;45.00
70813;DHT22;62099;52.170;5.386;2022-08-25T09:32:49;28.30;44.70
70813;DHT22;62099;52.170;5.386;2022-08-25T09:35:25;28.40;44.80
70813;DHT22;62099;52.170;5.386;2022-08-25T09:38:04;28.40;45.30
70813;DHT22;62099;52.170;5.386;2022-08-25T09:40:33;28.50;44.80
70813;DHT22;62099;52.170;5.386;2022-08-25T09:43:02;28.60;45.30
70813;DHT22;62099;52.170;5.386;2022-08-25T09:45:36;28.60;44.50
70813;DHT22;62099;52.170;5.386;2022-08-25T09:48:46;28.70;43.80
70813;DHT22;62099;52.170;5.386;2022-08-25T09:51:36;28.80;43.80
70813;DHT22;62099;52.170;5.386;2022-08-25T09:59:28;29.10;43.70
70813;DHT22;62099;52.170;5.386;2022-08-25T10:04:46;29.30;42.80
70813;DHT22;62099;52.170;5.386;2022-08-25T10:09:59;29.50;42.00
70813;DHT22;62099;52.170;5.386;2022-08-25T10:12:45;29.60;41.80
70813;DHT22;62099;52.170;5.386;2022-08-25T10:15:24;29.70;41.90
70813;DHT22;62099;52.170;5.386;2022-08-25T10:20:42;29.90;41.10
70813;DHT22;62099;52.170;5.386;2022-08-25T10:23:13;30.00;40.60
70813;DHT22;62099;52.170;5.386;2022-08-25T10:25:44;30.10;40.40
70813;DHT22;62099;52.170;5.386;2022-08-25T10:32:09;30.30;40.30
70813;DHT22;62099;52.170;5.386;2022-08-25T10:34:53;30.40;40.50
70813;DHT22;62099;52.170;5.386;2022-08-25T10:40:24;30.70;39.90
70813;DHT22;62099;52.170;5.386;2022-08-25T10:45:47;31.10;39.60
70813;DHT22;62099;52.170;5.386;2022-08-25T10:48:29;31.30;39.20
70813;DHT22;62099;52.170;5.386;2022-08-25T10:51:27;31.50;38.90
70813;DHT22;62099;52.170;5.386;2022-08-25T10:54:48;31.70;38.90
70813;DHT22;62099;52.170;5.386;2022-08-25T11:02:59;32.10;38.00
70813;DHT22;62099;52.170;5.386;2022-08-25T11:05:41;32.30;37.20
70813;DHT22;62099;52.170;5.386;2022-08-25T11:10:56;32.50;37.20
70813;DHT22;62099;52.170;5.386;2022-08-25T11:13:25;32.80;36.00
70813;DHT22;62099;52.170;5.386;2022-08-25T11:16:02;32.90;36.00
70813;DHT22;62099;52.170;5.386;2022-08-25T11:18:57;33.00;34.40
70813;DHT22;62099;52.170;5.386;2022-08-25T11:27:05;33.10;34.40
70813;DHT22;62099;52.170;5.386;2022-08-25T11:29:41;33.20;34.70
70813;DHT22;62099;52.170;5.386;2022-08-25T11:32:09;33.40;34.80
70813;DHT22;62099;52.170;5.386;2022-08-25T11:34:36;33.50;34.00
70813;DHT22;62099;52.170;5.386;2022-08-25T11:37:26;33.60;33.50
70813;DHT22;62099;52.170;5.386;2022-08-25T11:43:00;33.90;33.50
70813;DHT22;62099;52.170;5.386;2022-08-25T11:48:45;34.40;33.60
70813;DHT22;62099;52.170;5.386;2022-08-25T11:51:32;34.60;32.50
70813;DHT22;62099;52.170;5.386;2022-08-25T11:54:15;34.90;32.40
70813;DHT22;62099;52.170;5.386;2022-08-25T11:57:04;35.00;32.30
70813;DHT22;62099;52.170;5.386;2022-08-25T12:02:38;35.50;31.80
70813;DHT22;62099;52.170;5.386;2022-08-25T12:10:58;36.50;31.40
70813;DHT22;62099;52.170;5.386;2022-08-25T12:13:44;36.60;30.70
70813;DHT22;62099;52.170;5.386;2022-08-25T12:28:21;36.70;29.90
70813;DHT22;62099;52.170;5.386;2022-08-25T12:31:15;36.80;29.70
70813;DHT22;62099;52.170;5.386;2022-08-25T12:34:02;37.30;30.10
70813;DHT22;62099;52.170;5.386;2022-08-25T12:36:58;38.40;31.40
70813;DHT22;62099;52.170;5.386;2022-08-25T12:42:38;40.40;28.00
70813;DHT22;62099;52.170;5.386;2022-08-25T12:47:47;41.70;27.30
70813;DHT22;62099;52.170;5.386;2022-08-25T12:50:29;42.30;27.00
70813;DHT22;62099;52.170;5.386;2022-08-25T12:53:13;43.00;26.70
70813;DHT22;62099;52.170;5.386;2022-08-25T12:55:47;43.50;26.40
70813;DHT22;62099;52.170;5.386;2022-08-25T12:58:15;44.00;26.10
70813;DHT22;62099;52.170;5.386;2022-08-25T13:01:09;44.50;25.90
70813;DHT22;62099;52.170;5.386;2022-08-25T13:07:16;45.30;25.30
70813;DHT22;62099;52.170;5.386;2022-08-25T13:10:17;45.60;24.80
70813;DHT22;62099;52.170;5.386;2022-08-25T13:12:50;46.10;25.20
70813;DHT22;62099;52.170;5.386;2022-08-25T13:15:33;46.50;25.00
70813;DHT22;62099;52.170;5.386;2022-08-25T13:18:30;46.90;24.50
70813;DHT22;62099;52.170;5.386;2022-08-25T13:21:12;46.90;24.00
70813;DHT22;62099;52.170;5.386;2022-08-25T13:23:44;46.40;23.90
70813;DHT22;62099;52.170;5.386;2022-08-25T13:26:15;46.20;24.20
70813;DHT22;62099;52.170;5.386;2022-08-25T13:29:00;46.70;24.30
70813;DHT22;62099;52.170;5.386;2022-08-25T13:31:34;47.50;23.80
70813;DHT22;62099;52.170;5.386;2022-08-25T13:34:07;48.20;23.70
70813;DHT22;62099;52.170;5.386;2022-08-25T13:36:41;48.90;23.70
70813;DHT22;62099;52.170;5.386;2022-08-25T13:39:28;49.30;23.80
70813;DHT22;62099;52.170;5.386;2022-08-25T13:42:16;49.60;23.30
70813;DHT22;62099;52.170;5.386;2022-08-25T13:44:43;50.00;22.90
70813;DHT22;62099;52.170;5.386;2022-08-25T13:47:38;50.00;22.40
70813;DHT22;62099;52.170;5.386;2022-08-25T13:50:32;50.30;22.90
70813;DHT22;62099;52.170;5.386;2022-08-25T13:53:04;50.30;22.80
70813;DHT22;62099;52.170;5.386;2022-08-25T13:55:37;50.40;22.70
70813;DHT22;62099;52.170;5.386;2022-08-25T14:04:25;50.60;22.30
70813;DHT22;62099;52.170;5.386;2022-08-25T14:07:24;50.10;22.40
70813;DHT22;62099;52.170;5.386;2022-08-25T14:09:59;50.00;22.30
70813;DHT22;62099;52.170;5.386;2022-08-25T14:15:05;49.90;22.30
70813;DHT22;62099;52.170;5.386;2022-08-25T14:17:33;50.10;21.80
70813;DHT22;62099;52.170;5.386;2022-08-25T14:20:18;50.20;21.90
70813;DHT22;62099;52.170;5.386;2022-08-25T14:22:49;50.70;22.00
70813;DHT22;62099;52.170;5.386;2022-08-25T14:25:19;51.30;21.60
70813;DHT22;62099;52.170;5.386;2022-08-25T14:27:57;51.80;21.60
70813;DHT22;62099;52.170;5.386;2022-08-25T14:30:35;52.30;21.60
70813;DHT22;62099;52.170;5.386;2022-08-25T14:33:05;52.50;21.10
70813;DHT22;62099;52.170;5.386;2022-08-25T14:35:32;51.50;21.20
70813;DHT22;62099;52.170;5.386;2022-08-25T14:38:08;50.20;21.40
70813;DHT22;62099;52.170;5.386;2022-08-25T14:40:35;48.40;21.70
70813;DHT22;62099;52.170;5.386;2022-08-25T14:43:03;46.50;22.20
70813;DHT22;62099;52.170;5.386;2022-08-25T14:45:30;45.60;22.60
70813;DHT22;62099;52.170;5.386;2022-08-25T14:48:03;45.80;22.80
70813;DHT22;62099;52.170;5.386;2022-08-25T14:50:36;46.60;22.80
70813;DHT22;62099;52.170;5.386;2022-08-25T14:53:06;47.80;22.80
70813;DHT22;62099;52.170;5.386;2022-08-25T14:55:34;48.90;22.50
70813;DHT22;62099;52.170;5.386;2022-08-25T14:58:01;49.80;22.20
70813;DHT22;62099;52.170;5.386;2022-08-25T15:00:28;50.80;22.00
70813;DHT22;62099;52.170;5.386;2022-08-25T15:02:54;51.70;21.70
70813;DHT22;62099;52.170;5.386;2022-08-25T15:05:25;52.30;21.40
70813;DHT22;62099;52.170;5.386;2022-08-25T15:07:54;52.40;21.40
70813;DHT22;62099;52.170;5.386;2022-08-25T15:10:40;52.70;21.60
70813;DHT22;62099;52.170;5.386;2022-08-25T15:13:09;53.20;21.50
70813;DHT22;62099;52.170;5.386;2022-08-25T15:15:39;53.80;21.20
70813;DHT22;62099;52.170;5.386;2022-08-25T15:18:19;54.30;21.20
70813;DHT22;62099;52.170;5.386;2022-08-25T15:20:47;54.60;21.10
70813;DHT22;62099;52.170;5.386;2022-08-25T15:23:16;54.40;21.00
70813;DHT22;62099;52.170;5.386;2022-08-25T15:25:45;52.80;20.80
70813;DHT22;62099;52.170;5.386;2022-08-25T15:28:14;50.90;21.10
70813;DHT22;62099;52.170;5.386;2022-08-25T15:30:43;50.30;21.80
70813;DHT22;62099;52.170;5.386;2022-08-25T15:33:12;51.00;21.70
70813;DHT22;62099;52.170;5.386;2022-08-25T15:35:39;52.10;21.50
70813;DHT22;62099;52.170;5.386;2022-08-25T15:38:06;52.90;21.20
70813;DHT22;62099;52.170;5.386;2022-08-25T15:40:34;53.80;21.10
70813;DHT22;62099;52.170;5.386;2022-08-25T15:43:04;54.30;21.00
70813;DHT22;62099;52.170;5.386;2022-08-25T15:45:31;54.80;20.90
70813;DHT22;62099;52.170;5.386;2022-08-25T15:47:58;55.10;20.70
70813;DHT22;62099;52.170;5.386;2022-08-25T15:50:25;55.40;20.60
70813;DHT22;62099;52.170;5.386;2022-08-25T15:52:52;55.70;20.70
70813;DHT22;62099;52.170;5.386;2022-08-25T15:55:19;55.70;20.70
70813;DHT22;62099;52.170;5.386;2022-08-25T15:57:47;55.90;20.40
70813;DHT22;62099;52.170;5.386;2022-08-25T16:00:16;56.10;20.40
70813;DHT22;62099;52.170;5.386;2022-08-25T16:02:43;56.00;20.30
70813;DHT22;62099;52.170;5.386;2022-08-25T16:05:11;55.40;20.40
70813;DHT22;62099;52.170;5.386;2022-08-25T16:07:39;54.90;20.80
70813;DHT22;62099;52.170;5.386;2022-08-25T16:10:06;55.00;20.90
70813;DHT22;62099;52.170;5.386;2022-08-25T16:12:33;55.30;20.60
70813;DHT22;62099;52.170;5.386;2022-08-25T16:15:00;55.10;20.40
70813;DHT22;62099;52.170;5.386;2022-08-25T16:17:27;55.10;20.80
70813;DHT22;62099;52.170;5.386;2022-08-25T16:19:54;55.10;20.40
70813;DHT22;62099;52.170;5.386;2022-08-25T16:22:20;55.10;20.60
70813;DHT22;62099;52.170;5.386;2022-08-25T16:24:47;55.10;20.40
70813;DHT22;62099;52.170;5.386;2022-08-25T16:27:14;55.00;20.30
70813;DHT22;62099;52.170;5.386;2022-08-25T16:29:42;54.90;20.40
70813;DHT22;62099;52.170;5.386;2022-08-25T16:32:12;54.80;20.40
70813;DHT22;62099;52.170;5.386;2022-08-25T16:34:39;54.70;20.60
70813;DHT22;62099;52.170;5.386;2022-08-25T16:37:06;54.30;20.60
70813;DHT22;62099;52.170;5.386;2022-08-25T16:39:34;53.60;20.50
70813;DHT22;62099;52.170;5.386;2022-08-25T16:42:05;52.30;20.60
70813;DHT22;62099;52.170;5.386;2022-08-25T16:44:32;51.40;20.90
70813;DHT22;62099;52.170;5.386;2022-08-25T16:47:00;50.70;20.90
70813;DHT22;62099;52.170;5.386;2022-08-25T16:49:27;49.40;20.90
70813;DHT22;62099;52.170;5.386;2022-08-25T16:51:54;47.80;21.40
70813;DHT22;62099;52.170;5.386;2022-08-25T16:54:24;46.30;22.10
70813;DHT22;62099;52.170;5.386;2022-08-25T16:57:10;44.70;22.70
70813;DHT22;62099;52.170;5.386;2022-08-25T16:59:37;43.30;23.80
70813;DHT22;62099;52.170;5.386;2022-08-25T17:02:03;42.30;24.30
70813;DHT22;62099;52.170;5.386;2022-08-25T17:04:31;41.40;25.00
70813;DHT22;62099;52.170;5.386;2022-08-25T17:06:58;40.70;26.10
70813;DHT22;62099;52.170;5.386;2022-08-25T17:09:27;40.00;26.70
70813;DHT22;62099;52.170;5.386;2022-08-25T17:11:55;39.50;27.30
70813;DHT22;62099;52.170;5.386;2022-08-25T17:14:23;38.90;28.00
70813;DHT22;62099;52.170;5.386;2022-08-25T17:16:50;38.50;28.90
70813;DHT22;62099;52.170;5.386;2022-08-25T17:19:20;38.10;29.40
70813;DHT22;62099;52.170;5.386;2022-08-25T17:21:49;37.60;30.00
70813;DHT22;62099;52.170;5.386;2022-08-25T17:24:17;37.10;30.50
70813;DHT22;62099;52.170;5.386;2022-08-25T17:26:46;36.70;31.20
70813;DHT22;62099;52.170;5.386;2022-08-25T17:29:16;36.30;31.90
70813;DHT22;62099;52.170;5.386;2022-08-25T17:31:43;36.00;32.60
70813;DHT22;62099;52.170;5.386;2022-08-25T17:34:14;35.60;33.10
70813;DHT22;62099;52.170;5.386;2022-08-25T17:36:42;35.40;33.80
70813;DHT22;62099;52.170;5.386;2022-08-25T17:39:12;35.10;34.20